createdAt,value
2018-10-02T00:01:28.369Z,8.20
2018-10-02T00:03:56.981Z,8.10
2018-10-02T00:06:25.621Z,8.10
2018-10-02T00:08:54.164Z,8.10
2018-10-02T00:11:28.042Z,8.00
2018-10-02T00:14:01.664Z,8.00
2018-10-02T00:16:30.097Z,7.90
2018-10-02T00:18:58.452Z,7.90
2018-10-02T00:21:26.880Z,7.80
2018-10-02T00:23:55.276Z,7.80
2018-10-02T00:26:23.650Z,7.90
2018-10-02T00:28:52.671Z,7.90
2018-10-02T00:31:21.059Z,8.00
2018-10-02T00:33:49.404Z,8.00
2018-10-02T00:36:17.828Z,7.90
2018-10-02T00:38:46.218Z,7.90
2018-10-02T00:41:14.618Z,7.80
2018-10-02T00:43:42.995Z,7.80
2018-10-02T00:46:11.388Z,7.80
2018-10-02T00:48:39.800Z,7.80
2018-10-02T00:51:08.282Z,7.80
2018-10-02T00:53:36.890Z,7.80
2018-10-02T00:56:05.326Z,7.70
2018-10-02T00:58:33.801Z,7.70
2018-10-02T01:01:02.255Z,7.70
2018-10-02T01:03:30.686Z,7.80
2018-10-02T01:05:59.093Z,7.70
2018-10-02T01:08:27.668Z,7.80
2018-10-02T01:10:56.222Z,7.80
2018-10-02T01:13:24.687Z,7.70
2018-10-02T01:15:53.119Z,7.70
2018-10-02T01:18:21.535Z,7.80
2018-10-02T01:20:50.089Z,7.80
2018-10-02T01:23:18.455Z,7.70
2018-10-02T01:25:46.878Z,7.80
2018-10-02T01:28:15.295Z,7.90
2018-10-02T01:30:43.795Z,7.80
2018-10-02T01:33:12.194Z,7.80
2018-10-02T01:35:40.586Z,7.70
2018-10-02T01:38:08.959Z,7.80
2018-10-02T01:40:37.341Z,7.80
2018-10-02T01:43:05.747Z,7.60
2018-10-02T01:45:34.269Z,7.70
2018-10-02T01:48:02.690Z,7.60
2018-10-02T01:50:31.074Z,7.70
2018-10-02T01:52:59.404Z,7.70
2018-10-02T01:55:27.795Z,7.80
2018-10-02T01:57:56.124Z,7.80
2018-10-02T02:00:24.544Z,7.80
2018-10-02T02:02:52.866Z,7.80
2018-10-02T02:05:21.207Z,7.70
2018-10-02T02:07:49.611Z,7.70
2018-10-02T02:10:17.972Z,7.70
2018-10-02T02:12:46.352Z,7.80
2018-10-02T02:15:14.774Z,7.70
2018-10-02T02:17:43.138Z,7.60
2018-10-02T02:20:11.455Z,7.60
2018-10-02T02:22:39.833Z,7.60
2018-10-02T02:25:08.239Z,7.50
2018-10-02T02:27:36.617Z,7.50
2018-10-02T02:30:04.991Z,7.60
2018-10-02T02:32:33.407Z,7.60
2018-10-02T02:35:01.947Z,7.60
2018-10-02T02:37:30.346Z,7.60
2018-10-02T02:39:58.720Z,7.70
2018-10-02T02:42:27.130Z,7.70
2018-10-02T02:44:55.492Z,7.70
2018-10-02T02:47:29.236Z,7.70
2018-10-02T02:50:02.975Z,7.60
2018-10-02T02:52:37.869Z,7.60
2018-10-02T02:55:06.836Z,7.70
2018-10-02T02:57:35.221Z,7.70
2018-10-02T03:00:04.027Z,7.80
2018-10-02T03:02:32.379Z,7.70
2018-10-02T03:05:00.745Z,7.60
2018-10-02T03:07:29.106Z,7.80
2018-10-02T03:09:57.464Z,7.80
2018-10-02T03:12:25.897Z,7.80
2018-10-02T03:14:54.281Z,7.70
2018-10-02T03:17:22.668Z,7.70
2018-10-02T03:19:51.047Z,7.80
2018-10-02T03:22:21.406Z,7.70
2018-10-02T03:24:49.775Z,7.70
2018-10-02T03:27:18.142Z,7.70
2018-10-02T03:29:46.741Z,7.70
2018-10-02T03:32:15.125Z,7.70
2018-10-02T03:34:43.515Z,7.70
2018-10-02T03:37:11.879Z,7.70
2018-10-02T03:39:40.291Z,7.80
2018-10-02T03:42:08.638Z,7.80
2018-10-02T03:44:37.083Z,7.80
2018-10-02T03:47:05.546Z,7.90
2018-10-02T03:49:33.929Z,7.90
2018-10-02T03:52:02.274Z,7.80
2018-10-02T03:54:31.074Z,7.70
2018-10-02T03:56:59.440Z,7.60
2018-10-02T03:59:27.788Z,7.50
2018-10-02T04:01:56.128Z,7.50
2018-10-02T04:04:24.531Z,7.40
2018-10-02T04:06:52.908Z,7.40
2018-10-02T04:09:21.281Z,7.30
2018-10-02T04:11:49.666Z,7.30
2018-10-02T04:14:18.056Z,7.30
2018-10-02T04:16:46.382Z,7.30
2018-10-02T04:19:14.739Z,7.40
2018-10-02T04:21:43.110Z,7.40
2018-10-02T04:24:11.508Z,7.50
2018-10-02T04:26:39.898Z,7.40
2018-10-02T04:29:08.442Z,7.30
2018-10-02T04:31:38.185Z,7.20
2018-10-02T04:34:07.006Z,7.30
2018-10-02T04:36:35.444Z,7.30
2018-10-02T04:39:05.523Z,7.20
2018-10-02T04:41:33.912Z,7.10
2018-10-02T04:44:02.264Z,7.00
2018-10-02T04:46:30.607Z,7.00
2018-10-02T04:48:58.977Z,7.00
2018-10-02T04:51:27.334Z,7.00
2018-10-02T04:53:55.703Z,6.90
2018-10-02T04:56:24.109Z,6.90
2018-10-02T04:58:52.392Z,7.00
2018-10-02T05:01:20.757Z,7.00
2018-10-02T05:03:49.074Z,7.00
2018-10-02T05:06:17.419Z,7.00
2018-10-02T05:08:45.846Z,7.10
2018-10-02T05:11:14.175Z,7.00
2018-10-02T05:13:42.519Z,6.80
2018-10-02T05:16:10.946Z,6.80
2018-10-02T05:18:39.287Z,6.80
2018-10-02T05:21:07.691Z,6.80
2018-10-02T05:23:36.049Z,6.90
2018-10-02T05:26:05.195Z,7.00
2018-10-02T05:28:33.595Z,7.00
2018-10-02T05:31:01.921Z,7.10
2018-10-02T05:33:30.330Z,7.10
2018-10-02T05:35:58.701Z,7.20
2018-10-02T05:38:27.182Z,7.10
2018-10-02T05:40:55.632Z,7.20
2018-10-02T05:43:23.994Z,7.30
2018-10-02T05:45:52.365Z,7.30
2018-10-02T05:48:21.635Z,7.30
2018-10-02T05:50:49.968Z,7.30
2018-10-02T05:53:18.363Z,7.20
2018-10-02T05:55:46.712Z,7.30
2018-10-02T05:58:15.134Z,7.30
2018-10-02T06:00:43.664Z,7.30
2018-10-02T06:03:12.091Z,7.30
2018-10-02T06:05:40.456Z,7.40
2018-10-02T06:08:08.855Z,7.30
2018-10-02T06:10:37.219Z,7.30
2018-10-02T06:13:05.672Z,7.20
2018-10-02T06:15:34.086Z,7.30
2018-10-02T06:18:03.226Z,7.40
2018-10-02T06:20:31.585Z,7.40
2018-10-02T06:22:59.928Z,7.30
2018-10-02T06:25:28.379Z,7.30
2018-10-02T06:27:56.721Z,7.40
2018-10-02T06:30:25.267Z,7.40
2018-10-02T06:32:53.634Z,7.60
2018-10-02T06:35:22.046Z,7.60
2018-10-02T06:37:50.417Z,7.70
2018-10-02T06:40:18.878Z,7.70
2018-10-02T06:42:47.246Z,7.70
2018-10-02T06:45:15.674Z,7.80
2018-10-02T06:47:44.140Z,7.60
2018-10-02T06:50:12.547Z,7.60
2018-10-02T06:52:41.319Z,7.60
2018-10-02T06:55:09.668Z,7.70
2018-10-02T06:57:38.420Z,7.70
2018-10-02T07:00:07.208Z,7.80
2018-10-02T07:02:35.640Z,7.80
2018-10-02T07:05:04.105Z,7.70
2018-10-02T07:07:32.497Z,7.70
2018-10-02T07:10:00.872Z,7.80
2018-10-02T07:12:29.317Z,7.90
2018-10-02T07:14:57.717Z,7.90
2018-10-02T07:17:26.144Z,8.00
2018-10-02T07:19:54.478Z,8.00
2018-10-02T07:22:22.863Z,8.00
2018-10-02T07:24:51.287Z,8.10
2018-10-02T07:27:19.783Z,8.10
2018-10-02T07:29:48.061Z,8.10
2018-10-02T07:32:16.458Z,8.00
2018-10-02T07:34:44.866Z,8.00
2018-10-02T07:37:13.338Z,8.00
2018-10-02T07:39:41.744Z,8.10
2018-10-02T07:42:10.277Z,8.20
2018-10-02T07:44:38.755Z,8.20
2018-10-02T07:47:07.148Z,8.30
2018-10-02T07:49:35.549Z,8.30
2018-10-02T07:52:03.963Z,8.40
2018-10-02T07:54:32.397Z,8.40
2018-10-02T07:57:00.834Z,8.30
2018-10-02T07:59:29.253Z,8.40
2018-10-02T08:01:57.654Z,8.40
2018-10-02T08:04:26.062Z,8.30
2018-10-02T08:06:54.505Z,8.40
2018-10-02T08:09:22.934Z,8.40
2018-10-02T08:11:51.355Z,8.50
2018-10-02T08:14:19.741Z,8.40
2018-10-02T08:16:48.174Z,8.40
2018-10-02T08:19:16.649Z,8.30
2018-10-02T08:21:45.039Z,8.30
2018-10-02T08:24:13.470Z,8.20
2018-10-02T08:26:41.965Z,8.20
2018-10-02T08:29:10.355Z,8.20
2018-10-02T08:31:38.799Z,8.30
2018-10-02T08:34:07.327Z,8.40
2018-10-02T08:36:35.752Z,8.30
2018-10-02T08:39:05.799Z,8.20
2018-10-02T08:41:34.234Z,8.30
2018-10-02T08:44:02.689Z,8.40
2018-10-02T08:46:31.075Z,8.30
2018-10-02T08:48:59.563Z,8.40
2018-10-02T08:51:27.974Z,8.50
2018-10-02T08:53:56.390Z,8.50
2018-10-02T08:56:24.699Z,8.60
2018-10-02T08:58:53.095Z,8.80
2018-10-02T09:01:21.530Z,8.70
2018-10-02T09:03:49.928Z,8.80
2018-10-02T09:06:18.355Z,8.80
2018-10-02T09:08:46.738Z,8.80
2018-10-02T09:11:15.099Z,8.60
2018-10-02T09:13:43.536Z,8.60
2018-10-02T09:16:12.098Z,8.50
2018-10-02T09:18:40.695Z,8.50
2018-10-02T09:21:09.207Z,8.40
2018-10-02T09:23:37.611Z,8.40
2018-10-02T09:26:06.201Z,8.30
2018-10-02T09:28:34.728Z,8.40
2018-10-02T09:31:08.597Z,8.40
2018-10-02T09:33:42.415Z,8.40
2018-10-02T09:36:16.195Z,8.40
2018-10-02T09:38:49.940Z,8.60
2018-10-02T09:41:23.703Z,8.70
2018-10-02T09:43:55.133Z,8.70
2018-10-02T09:46:24.282Z,8.70
2018-10-02T09:48:52.725Z,8.80
2018-10-02T09:51:21.301Z,8.90
2018-10-02T09:53:49.796Z,8.90
2018-10-02T09:56:18.218Z,9.00
2018-10-02T09:58:46.565Z,8.90
2018-10-02T10:01:20.459Z,9.00
2018-10-02T10:03:48.825Z,9.00
2018-10-02T10:06:17.215Z,9.00
2018-10-02T10:08:45.621Z,9.00
2018-10-02T10:11:14.056Z,9.00
2018-10-02T10:13:42.452Z,9.00
2018-10-02T10:16:10.823Z,9.10
2018-10-02T10:18:39.243Z,9.20
2018-10-02T10:21:07.650Z,9.20
2018-10-02T10:23:36.047Z,9.30
2018-10-02T10:26:04.421Z,9.30
2018-10-02T10:28:32.910Z,9.20
2018-10-02T10:31:02.059Z,9.30
2018-10-02T10:33:30.550Z,9.20
2018-10-02T10:35:58.924Z,9.30
2018-10-02T10:38:27.412Z,9.40
2018-10-02T10:40:55.919Z,9.40
2018-10-02T10:43:24.259Z,9.40
2018-10-02T10:45:52.655Z,9.40
2018-10-02T10:48:21.067Z,9.40
2018-10-02T10:50:49.462Z,9.40
2018-10-02T10:53:17.890Z,9.40
2018-10-02T10:55:46.287Z,9.40
2018-10-02T10:58:14.659Z,9.40
2018-10-02T11:00:43.079Z,9.40
2018-10-02T11:03:11.453Z,9.50
2018-10-02T11:05:39.838Z,9.40
2018-10-02T11:08:08.239Z,9.40
2018-10-02T11:10:36.597Z,9.40
2018-10-02T11:13:04.980Z,9.40
2018-10-02T11:15:34.372Z,9.40
2018-10-02T11:18:02.752Z,9.30
2018-10-02T11:20:33.835Z,9.40
2018-10-02T11:23:02.270Z,9.40
2018-10-02T11:25:30.786Z,9.50
2018-10-02T11:27:59.110Z,9.50
2018-10-02T11:30:27.478Z,9.40
2018-10-02T11:32:55.874Z,9.40
2018-10-02T11:35:24.391Z,9.30
2018-10-02T11:37:52.749Z,9.30
2018-10-02T11:40:21.119Z,9.20
2018-10-02T11:42:49.655Z,9.20
2018-10-02T11:45:18.056Z,9.10
2018-10-02T11:47:46.427Z,8.90
2018-10-02T11:50:14.900Z,8.80
2018-10-02T11:52:43.244Z,8.70
2018-10-02T11:55:12.461Z,8.60
2018-10-02T11:57:40.886Z,8.50
2018-10-02T12:00:09.572Z,8.40
2018-10-02T12:02:38.044Z,8.40
2018-10-02T12:05:06.407Z,8.40
2018-10-02T12:07:34.768Z,8.40
2018-10-02T12:10:03.225Z,8.40
2018-10-02T12:12:31.645Z,8.40
2018-10-02T12:15:00.394Z,8.40
2018-10-02T12:17:28.922Z,8.50
2018-10-02T12:19:57.483Z,8.50
2018-10-02T12:22:25.702Z,8.60
2018-10-02T12:24:54.152Z,8.50
2018-10-02T12:27:23.236Z,8.50
2018-10-02T12:29:51.647Z,8.50
2018-10-02T12:32:20.076Z,8.50
2018-10-02T12:34:48.463Z,8.40
2018-10-02T12:37:16.915Z,8.50
2018-10-02T12:39:45.290Z,8.50
2018-10-02T12:42:13.733Z,8.50
2018-10-02T12:44:42.123Z,8.50
2018-10-02T12:47:10.564Z,8.60
2018-10-02T12:49:38.978Z,8.50
2018-10-02T12:52:07.448Z,8.50
2018-10-02T12:54:35.883Z,8.50
2018-10-02T12:57:04.303Z,8.50
2018-10-02T12:59:32.695Z,8.50
2018-10-02T13:02:01.086Z,8.50
2018-10-02T13:04:29.484Z,8.50
2018-10-02T13:06:58.125Z,8.50
2018-10-02T13:09:26.477Z,8.40
2018-10-02T13:11:54.944Z,8.40
2018-10-02T13:14:23.491Z,8.50
2018-10-02T13:16:51.957Z,8.40
2018-10-02T13:19:20.312Z,8.50
2018-10-02T13:21:48.692Z,8.50
2018-10-02T13:24:17.096Z,8.40
2018-10-02T13:26:45.565Z,8.40
2018-10-02T13:29:13.963Z,8.50
2018-10-02T13:31:42.330Z,8.40
2018-10-02T13:34:10.807Z,8.40
2018-10-02T13:36:39.199Z,8.40
2018-10-02T13:39:09.252Z,8.30
2018-10-02T13:41:37.927Z,8.40
2018-10-02T13:44:06.488Z,8.40
2018-10-02T13:46:34.904Z,8.40
2018-10-02T13:49:03.332Z,8.40
2018-10-02T13:51:31.731Z,8.40
2018-10-02T13:54:00.179Z,8.40
2018-10-02T13:56:28.565Z,8.50
2018-10-02T13:58:56.972Z,8.50
2018-10-02T14:01:25.387Z,8.50
2018-10-02T14:03:53.762Z,8.50
2018-10-02T14:06:22.170Z,8.40
2018-10-02T14:08:50.564Z,8.40
2018-10-02T14:11:19.134Z,8.40
2018-10-02T14:13:48.515Z,8.40
2018-10-02T14:16:16.872Z,8.40
2018-10-02T14:18:45.259Z,8.40
2018-10-02T14:21:13.668Z,8.40
2018-10-02T14:23:42.156Z,8.40
2018-10-02T14:26:10.571Z,8.40
2018-10-02T14:28:38.990Z,8.40
2018-10-02T14:31:07.467Z,8.40
2018-10-02T14:33:35.841Z,8.40
2018-10-02T14:36:04.902Z,8.40
2018-10-02T14:38:33.272Z,8.30
2018-10-02T14:41:01.663Z,8.40
2018-10-02T14:43:30.058Z,8.30
2018-10-02T14:45:58.438Z,8.40
2018-10-02T14:48:26.785Z,8.30
2018-10-02T14:50:55.160Z,8.30
2018-10-02T14:53:23.509Z,8.40
2018-10-02T14:55:52.253Z,8.40
2018-10-02T14:58:20.646Z,8.40
2018-10-02T15:00:49.062Z,8.50
2018-10-02T15:03:17.442Z,8.40
2018-10-02T15:05:45.855Z,8.40
2018-10-02T15:08:14.299Z,8.40
2018-10-02T15:10:42.727Z,8.40
2018-10-02T15:13:11.086Z,8.40
2018-10-02T15:15:39.468Z,8.40
2018-10-02T15:18:07.928Z,8.50
2018-10-02T15:20:36.284Z,8.40
2018-10-02T15:23:04.674Z,8.50
2018-10-02T15:25:33.030Z,8.50
2018-10-02T15:28:01.508Z,8.50
2018-10-02T15:30:29.868Z,8.50
2018-10-02T15:32:58.239Z,8.50
2018-10-02T15:35:26.617Z,8.50
2018-10-02T15:37:55.215Z,8.60
2018-10-02T15:40:23.355Z,8.60
2018-10-02T15:42:51.711Z,8.60
2018-10-02T15:45:20.055Z,8.60
2018-10-02T15:47:48.493Z,8.70
2018-10-02T15:50:17.075Z,8.70
2018-10-02T15:52:45.449Z,8.80
2018-10-02T15:55:13.850Z,8.80
2018-10-02T15:57:42.244Z,8.90
2018-10-02T16:00:10.668Z,8.90
2018-10-02T16:02:39.124Z,8.90
2018-10-02T16:05:07.591Z,9.00
2018-10-02T16:07:36.637Z,9.00
2018-10-02T16:10:05.177Z,9.10
2018-10-02T16:12:34.180Z,9.10
2018-10-02T16:15:02.682Z,9.20
2018-10-02T16:17:31.216Z,9.20
2018-10-02T16:19:59.850Z,9.20
2018-10-02T16:22:28.834Z,9.30
2018-10-02T16:24:57.282Z,9.30
2018-10-02T16:27:25.553Z,9.40
2018-10-02T16:29:53.978Z,9.40
2018-10-02T16:32:22.340Z,9.40
2018-10-02T16:34:50.892Z,9.50
2018-10-02T16:37:19.331Z,9.50
2018-10-02T16:39:47.723Z,9.50
2018-10-02T16:42:16.170Z,9.60
2018-10-02T16:44:44.587Z,9.50
2018-10-02T16:47:13.043Z,9.60
2018-10-02T16:49:41.464Z,9.70
2018-10-02T16:52:09.874Z,9.70
2018-10-02T16:54:38.321Z,9.70
2018-10-02T16:57:07.249Z,9.70
2018-10-02T16:59:35.674Z,9.70
2018-10-02T17:02:04.815Z,9.80
2018-10-02T17:04:33.220Z,9.70
2018-10-02T17:07:02.302Z,9.90
2018-10-02T17:09:30.670Z,9.90
2018-10-02T17:11:59.119Z,9.90
2018-10-02T17:14:27.666Z,9.90
2018-10-02T17:16:56.087Z,9.90
2018-10-02T17:19:24.485Z,9.90
2018-10-02T17:21:52.953Z,10.00
2018-10-02T17:24:21.411Z,10.00
2018-10-02T17:26:50.029Z,10.00
2018-10-02T17:29:18.450Z,10.10
2018-10-02T17:31:46.863Z,10.10
2018-10-02T17:34:15.428Z,10.10
2018-10-02T17:36:43.840Z,10.10
2018-10-02T17:39:12.321Z,10.10
2018-10-02T17:41:40.760Z,10.10
2018-10-02T17:44:09.126Z,10.20
2018-10-02T17:46:37.600Z,10.20
2018-10-02T17:49:06.163Z,10.10
2018-10-02T17:51:34.499Z,10.20
2018-10-02T17:54:02.992Z,10.10
2018-10-02T17:56:31.943Z,10.20
2018-10-02T17:59:00.875Z,10.20
2018-10-02T18:01:29.328Z,10.20
2018-10-02T18:03:57.654Z,10.30
2018-10-02T18:06:26.527Z,10.30
2018-10-02T18:08:54.975Z,10.30
2018-10-02T18:11:23.388Z,10.30
2018-10-02T18:13:51.793Z,10.30
2018-10-02T18:16:20.188Z,10.30
2018-10-02T18:18:48.713Z,10.40
2018-10-02T18:21:17.190Z,10.40
2018-10-02T18:23:45.655Z,10.40
2018-10-02T18:26:14.082Z,10.40
2018-10-02T18:28:42.507Z,10.40
2018-10-02T18:31:10.946Z,10.40
2018-10-02T18:33:39.455Z,10.40
2018-10-02T18:36:08.773Z,10.40
2018-10-02T18:38:37.511Z,10.50
2018-10-02T18:41:06.102Z,10.40
2018-10-02T18:43:34.479Z,10.50
2018-10-02T18:46:03.015Z,10.40
2018-10-02T18:48:31.433Z,10.50
2018-10-02T18:50:59.833Z,10.40
2018-10-02T18:53:28.226Z,10.40
2018-10-02T18:55:56.655Z,10.40
2018-10-02T18:58:25.013Z,10.50
2018-10-02T19:00:53.444Z,10.40
2018-10-02T19:03:21.861Z,10.40
2018-10-02T19:05:50.311Z,10.40
2018-10-02T19:09:24.466Z,10.40
2018-10-02T19:11:58.334Z,10.40
2018-10-02T19:14:26.738Z,10.40
2018-10-02T19:16:55.282Z,10.40
2018-10-02T19:19:29.281Z,10.40
2018-10-02T19:21:57.810Z,10.50
2018-10-02T19:24:26.319Z,10.50
2018-10-02T19:26:54.824Z,10.60
2018-10-02T19:29:23.379Z,10.50
2018-10-02T19:31:57.056Z,10.60
2018-10-02T19:34:25.524Z,10.50
2018-10-02T19:36:54.030Z,10.60
2018-10-02T19:39:27.149Z,10.60
2018-10-02T19:41:55.949Z,10.50
2018-10-02T19:44:24.494Z,10.50
2018-10-02T19:46:55.503Z,10.50
2018-10-02T19:49:27.281Z,10.50
2018-10-02T19:51:56.920Z,10.60
2018-10-02T19:54:25.932Z,10.60
2018-10-02T19:56:54.915Z,10.60
2018-10-02T19:59:23.591Z,10.50
2018-10-02T20:01:52.226Z,10.60
2018-10-02T20:04:20.675Z,10.60
2018-10-02T20:06:49.129Z,10.60
2018-10-02T20:09:17.645Z,10.60
2018-10-02T20:11:46.048Z,10.60
2018-10-02T20:14:14.512Z,10.70
2018-10-02T20:16:42.867Z,10.70
2018-10-02T20:19:11.332Z,10.60
2018-10-02T20:21:39.830Z,10.60
2018-10-02T20:24:08.283Z,10.60
2018-10-02T20:26:37.029Z,10.60
2018-10-02T20:29:05.473Z,10.60
2018-10-02T20:31:39.073Z,10.60
2018-10-02T20:34:07.482Z,10.70
2018-10-02T20:36:35.948Z,10.60
2018-10-02T20:39:05.474Z,10.70
2018-10-02T20:41:33.901Z,10.70
2018-10-02T20:44:02.368Z,10.60
2018-10-02T20:46:30.787Z,10.60
2018-10-02T20:48:59.247Z,10.70
2018-10-02T20:51:27.757Z,10.70
2018-10-02T20:53:56.111Z,10.70
2018-10-02T20:56:24.898Z,10.60
2018-10-02T20:58:53.311Z,10.60
2018-10-02T21:01:21.813Z,10.60
2018-10-02T21:03:50.298Z,10.60
2018-10-02T21:06:18.721Z,10.60
2018-10-02T21:08:47.154Z,10.60
2018-10-02T21:11:15.616Z,10.60
2018-10-02T21:13:44.164Z,10.60
2018-10-02T21:16:12.680Z,10.60
2018-10-02T21:18:41.152Z,10.60
2018-10-02T21:21:09.617Z,10.70
2018-10-02T21:23:38.009Z,10.70
2018-10-02T21:26:06.582Z,10.70
2018-10-02T21:28:35.195Z,10.70
2018-10-02T21:31:03.722Z,10.70
2018-10-02T21:33:33.230Z,10.60
2018-10-02T21:36:01.731Z,10.70
2018-10-02T21:38:30.185Z,10.70
2018-10-02T21:40:58.691Z,10.70
2018-10-02T21:43:27.149Z,10.70
2018-10-02T21:45:55.668Z,10.70
2018-10-02T21:48:24.196Z,10.70
2018-10-02T21:50:52.635Z,10.80
2018-10-02T21:53:21.197Z,10.80
2018-10-02T21:55:49.598Z,10.80
2018-10-02T21:58:18.739Z,10.80
2018-10-02T22:00:47.176Z,10.90
2018-10-02T22:03:15.719Z,10.80
2018-10-02T22:05:44.265Z,10.80
2018-10-02T22:08:12.687Z,10.90
2018-10-02T22:10:41.161Z,10.80
2018-10-02T22:13:09.642Z,10.80
2018-10-02T22:15:38.237Z,10.70
2018-10-02T22:18:06.675Z,10.70
2018-10-02T22:20:35.410Z,10.70
2018-10-02T22:23:03.804Z,10.60
2018-10-02T22:25:32.191Z,10.70
2018-10-02T22:28:00.802Z,10.70
2018-10-02T22:30:29.188Z,10.70
2018-10-02T22:32:57.651Z,10.70
2018-10-02T22:35:26.083Z,10.60
2018-10-02T22:37:54.502Z,10.70
2018-10-02T22:40:22.949Z,10.70
2018-10-02T22:42:51.380Z,10.70
2018-10-02T22:45:19.839Z,10.60
2018-10-02T22:47:48.247Z,10.60
2018-10-02T22:50:16.762Z,10.60
2018-10-02T22:52:45.144Z,10.60
2018-10-02T22:55:13.537Z,10.50
2018-10-02T22:57:41.939Z,10.50
2018-10-02T23:00:10.336Z,10.50
2018-10-02T23:02:38.862Z,10.50
2018-10-02T23:05:07.296Z,10.50
2018-10-02T23:07:35.691Z,10.50
2018-10-02T23:10:04.243Z,10.60
2018-10-02T23:12:32.631Z,10.60
2018-10-02T23:15:01.111Z,10.60
2018-10-02T23:17:29.491Z,10.60
2018-10-02T23:19:57.866Z,10.60
2018-10-02T23:22:26.271Z,10.60
2018-10-02T23:24:54.698Z,10.60
2018-10-02T23:27:23.058Z,10.70
2018-10-02T23:29:51.446Z,10.60
2018-10-02T23:32:19.896Z,10.60
2018-10-02T23:34:48.350Z,10.60
2018-10-02T23:37:16.840Z,10.50
2018-10-02T23:39:45.264Z,10.60
2018-10-02T23:42:13.647Z,10.60
2018-10-02T23:44:42.058Z,10.60
2018-10-02T23:47:10.445Z,10.60
2018-10-02T23:49:38.883Z,10.70
2018-10-02T23:52:07.296Z,10.70
2018-10-02T23:54:35.668Z,10.70
2018-10-02T23:57:04.154Z,10.70
2018-10-02T23:59:33.274Z,10.70
